Time;durP1;ratioP1;P1;durP2;ratioP2;P2;SDS_P1;SDS_P2;PMS_P1;PMS_P2;Temp;Humidity;BMP_temperature;BMP_pressure;BME280_temperature;BME280_humidity;BME280_pressure;Samples;Min_cycle;Max_cycle;Signal;HPM_P1;HPM_P2
2021/11/11 00:11:54;;;;;;;13.60;10.70;;;23.00;57.10;;;;;;31370986;28;20121;-38
2021/11/11 00:26:56;;;;;;;14.60;9.98;;;22.90;57.30;;;;;;31385878;28;20050;-39
2021/11/11 00:41:58;;;;;;;13.63;10.05;;;22.90;57.70;;;;;;31396368;28;20058;-42
2021/11/11 00:57:00;;;;;;;12.95;9.93;;;22.80;57.80;;;;;;31393934;28;20551;-42
2021/11/11 01:12:03;;;;;;;17.42;9.13;;;22.70;58.00;;;;;;31387490;28;20052;-42
2021/11/11 01:27:05;;;;;;;13.23;8.35;;;22.50;58.30;;;;;;31385696;28;20057;-42
2021/11/11 01:42:08;;;;;;;12.38;8.90;;;22.40;58.30;;;;;;31383526;28;20076;-43
2021/11/11 01:57:13;;;;;;;12.15;8.45;;;22.40;58.60;;;;;;31382593;28;20103;-41
2021/11/11 02:12:15;;;;;;;9.23;7.10;;;22.40;58.70;;;;;;31381648;28;20069;-42
2021/11/11 02:27:17;;;;;;;7.80;6.18;;;22.40;59.10;;;;;;31383291;28;20052;-40
2021/11/11 02:42:19;;;;;;;7.72;6.22;;;22.40;59.30;;;;;;31382291;28;20073;-40
2021/11/11 02:57:25;;;;;;;7.03;5.53;;;22.30;59.70;;;;;;31376740;28;20065;-44
2021/11/11 03:12:27;;;;;;;7.85;6.22;;;22.40;59.70;;;;;;31373691;28;20104;-44
2021/11/11 03:27:31;;;;;;;6.15;5.47;;;22.90;59.90;;;;;;31371681;28;20053;-43
2021/11/11 03:42:33;;;;;;;6.75;5.35;;;23.10;58.80;;;;;;31370816;28;20053;-44
2021/11/11 03:57:35;;;;;;;5.60;4.72;;;23.00;58.70;;;;;;31380458;28;20045;-39
2021/11/11 04:12:38;;;;;;;6.53;4.90;;;22.90;58.90;;;;;;31398007;28;20052;-39
2021/11/11 04:27:46;;;;;;;6.15;4.38;;;22.80;59.00;;;;;;31395223;28;20056;-44
2021/11/11 04:59:36;;;;;;;5.07;4.25;;;22.60;59.50;;;;;;31391707;28;20048;-40
2021/11/11 05:13:30;;;;;;;9.52;5.65;;;22.50;59.70;;;;;;31386631;28;20069;-40
2021/11/11 05:28:32;;;;;;;13.20;7.13;;;22.30;57.80;;;;;;31384185;28;20120;-41
2021/11/11 05:43:35;;;;;;;17.90;5.53;;;22.20;57.20;;;;;;31385906;28;20064;-39
2021/11/11 05:58:37;;;;;;;26.92;11.73;;;22.60;57.80;;;;;;31383467;28;20076;-39
2021/11/11 06:13:39;;;;;;;29.98;16.77;;;22.70;57.30;;;;;;31382163;28;20044;-37
2021/11/11 06:28:41;;;;;;;33.25;19.88;;;22.40;49.20;;;;;;31378911;28;20065;-38
2021/11/11 06:43:43;;;;;;;41.42;26.50;;;22.00;45.60;;;;;;31380339;28;20053;-38
2021/11/11 06:58:45;;;;;;;42.42;27.63;;;22.30;49.70;;;;;;31380173;28;20049;-39
2021/11/11 07:13:47;;;;;;;38.13;25.10;;;22.50;49.00;;;;;;31379370;28;20101;-42
2021/11/11 07:28:49;;;;;;;33.53;22.98;;;22.60;48.60;;;;;;31373951;28;20061;-39
2021/11/11 07:43:51;;;;;;;43.00;23.15;;;22.50;47.90;;;;;;31373948;28;20088;-45
2021/11/11 07:58:53;;;;;;;60.13;45.17;;;22.50;49.50;;;;;;31373952;28;20099;-44
2021/11/11 08:13:55;;;;;;;34.72;22.35;;;22.40;48.80;;;;;;31369040;28;20046;-43
2021/11/11 08:28:57;;;;;;;42.88;25.50;;;22.10;44.90;;;;;;31367359;28;20076;-43
2021/11/11 08:44:01;;;;;;;34.47;22.40;;;22.20;48.30;;;;;;31373037;28;20099;-38
2021/11/11 08:59:04;;;;;;;48.28;34.75;;;22.60;50.00;;;;;;31387431;28;20072;-38
2021/11/11 09:14:07;;;;;;;30.95;23.90;;;22.50;49.00;;;;;;31386375;28;20068;-38
2021/11/11 09:29:10;;;;;;;30.40;18.27;;;22.40;50.10;;;;;;31385967;28;20052;-39
2021/11/11 09:44:12;;;;;;;30.95;16.85;;;22.30;49.70;;;;;;31465776;28;20060;-43
2021/11/11 09:59:15;;;;;;;28.80;16.77;;;22.30;50.70;;;;;;31455106;28;20048;-42
2021/11/11 10:14:25;;;;;;;21.85;14.07;;;22.10;51.60;;;;;;31471736;28;20104;-38
2021/11/11 10:29:32;;;;;;;35.75;23.85;;;22.00;52.00;;;;;;31447244;28;20049;-38
2021/11/11 10:44:34;;;;;;;28.52;21.40;;;22.10;52.00;;;;;;31391421;28;20061;-42
2021/11/11 10:59:37;;;;;;;25.08;18.83;;;22.00;50.70;;;;;;31252137;28;20046;-44
2021/11/11 11:14:40;;;;;;;21.50;17.33;;;22.40;51.20;;;;;;31253339;28;20057;-44
2021/11/11 11:29:56;;;;;;;24.65;15.75;;;22.70;51.80;;;;;;31359222;28;20049;-43
2021/11/11 11:45:04;;;;;;;42.72;26.05;;;22.80;52.90;;;;;;31367631;28;20100;-43
2021/11/11 12:00:22;;;;;;;42.67;34.03;;;22.60;53.40;;;;;;31399913;28;20104;-37
2021/11/11 12:46:06;;;;;;;68.07;52.90;;;22.10;52.30;;;;;;31437909;28;20057;-36
2021/11/11 13:01:20;;;;;;;72.15;52.72;;;22.00;50.70;;;;;;31450994;28;20045;-39
2021/11/11 13:16:22;;;;;;;66.45;43.13;;;22.00;52.10;;;;;;31444836;28;20046;-43
2021/11/11 16:20:45;;;;;;;29.20;20.03;;;22.90;53.30;;;;;;31409535;28;22185;-47
2021/11/11 16:35:47;;;;;;;86.13;38.60;;;22.90;53.60;;;;;;31416059;28;20053;-43
2021/11/11 16:50:50;;;;;;;92.20;42.95;;;22.80;53.60;;;;;;31412476;28;20081;-42
2021/11/11 17:05:52;;;;;;;120.65;52.20;;;22.60;53.70;;;;;;31043411;27;10000231;-47
2021/11/11 17:20:56;;;;;;;93.53;43.30;;;22.60;56.00;;;;;;31381253;28;20052;-49
2021/11/11 17:36:00;;;;;;;90.78;42.60;;;22.60;56.50;;;;;;31374465;28;20057;-40
2021/11/11 17:51:15;;;;;;;85.97;40.42;;;22.40;57.50;;;;;;31391770;28;20072;-41
2021/11/11 18:06:22;;;;;;;77.80;36.53;;;22.40;57.90;;;;;;31369368;28;20494;-40
2021/11/11 18:21:26;;;;;;;72.88;34.15;;;22.40;58.10;;;;;;31370661;28;20034;-43
2021/11/11 18:36:36;;;;;;;66.00;32.65;;;22.30;59.00;;;;;;31380153;28;20049;-37
2021/11/11 18:51:40;;;;;;;61.80;29.02;;;22.20;58.80;;;;;;31401036;28;20149;-45
2021/11/11 19:06:46;;;;;;;52.55;27.17;;;22.20;59.90;;;;;;31371244;28;20075;-53
2021/11/11 19:21:50;;;;;;;50.58;25.52;;;22.20;59.10;;;;;;31366723;28;20085;-51
2021/11/11 21:23:57;;;;;;;35.33;21.85;;;22.50;55.50;;;;;;31385670;28;20045;-37
2021/11/11 21:39:48;;;;;;;30.23;20.48;;;22.60;58.00;;;;;;31035124;28;10000212;-40
2021/11/11 21:54:25;;;;;;;33.10;20.90;;;22.60;58.20;;;;;;31382758;28;20060;-40
2021/11/11 22:39:57;;;;;;;24.52;16.63;;;22.50;58.40;;;;;;31368195;28;20088;-41
2021/11/11 22:55:04;;;;;;;23.90;16.63;;;22.50;59.00;;;;;;31367715;28;20041;-42
2021/11/11 23:10:24;;;;;;;23.27;15.88;;;22.40;59.20;;;;;;31364255;28;20069;-44
2021/11/11 23:40:31;;;;;;;32.65;24.27;;;22.40;59.20;;;;;;31362868;28;20318;-45
